sensor_id;sensor_type;location;lat;lon;timestamp;pressure;altitude;pressure_sealevel;temperature;humidity
25350;BME280;13302;48.796;11.978;2023-06-04T00:00:08;96896.72;;;16.95;26.24
25350;BME280;13302;48.796;11.978;2023-06-04T00:02:55;96892.72;;;16.92;26.58
25350;BME280;13302;48.796;11.978;2023-06-04T00:05:42;96887.13;;;16.89;26.71
25350;BME280;13302;48.796;11.978;2023-06-04T00:08:29;96879.94;;;16.88;26.77
25350;BME280;13302;48.796;11.978;2023-06-04T00:11:16;96883.13;;;16.86;26.44
25350;BME280;13302;48.796;11.978;2023-06-04T00:14:03;96882.31;;;16.86;26.94
25350;BME280;13302;48.796;11.978;2023-06-04T00:16:51;96885.88;;;16.83;26.78
25350;BME280;13302;48.796;11.978;2023-06-04T00:19:38;96886.28;;;16.81;26.65
25350;BME280;13302;48.796;11.978;2023-06-04T00:22:26;96884.28;;;16.78;26.80
25350;BME280;13302;48.796;11.978;2023-06-04T00:25:13;96883.47;;;16.74;26.86
25350;BME280;13302;48.796;11.978;2023-06-04T00:28:00;96880.63;;;16.67;27.12
25350;BME280;13302;48.796;11.978;2023-06-04T00:30:47;96883.00;;;16.62;26.91
25350;BME280;13302;48.796;11.978;2023-06-04T00:33:34;96877.38;;;16.58;26.76
25350;BME280;13302;48.796;11.978;2023-06-04T00:36:22;96883.34;;;16.53;26.95
25350;BME280;13302;48.796;11.978;2023-06-04T00:39:09;96877.75;;;16.49;26.64
25350;BME280;13302;48.796;11.978;2023-06-04T00:41:56;96873.72;;;16.47;27.06
25350;BME280;13302;48.796;11.978;2023-06-04T00:44:43;96880.50;;;16.46;27.05
25350;BME280;13302;48.796;11.978;2023-06-04T00:47:32;96878.91;;;16.45;27.04
25350;BME280;13302;48.796;11.978;2023-06-04T00:50:19;96878.13;;;16.44;27.02
25350;BME280;13302;48.796;11.978;2023-06-04T00:53:07;96875.69;;;16.43;27.04
25350;BME280;13302;48.796;11.978;2023-06-04T00:55:55;96874.88;;;16.42;27.13
25350;BME280;13302;48.796;11.978;2023-06-04T00:58:44;96874.47;;;16.40;27.18
25350;BME280;13302;48.796;11.978;2023-06-04T01:04:49;96884.00;;;16.36;27.27
25350;BME280;13302;48.796;11.978;2023-06-04T01:07:38;96875.19;;;16.34;27.20
25350;BME280;13302;48.796;11.978;2023-06-04T01:10:27;96885.97;;;16.32;26.88
25350;BME280;13302;48.796;11.978;2023-06-04T01:13:14;96881.16;;;16.29;27.10
25350;BME280;13302;48.796;11.978;2023-06-04T01:16:01;96875.53;;;16.25;27.11
25350;BME280;13302;48.796;11.978;2023-06-04T01:18:50;96883.09;;;16.21;27.17
25350;BME280;13302;48.796;11.978;2023-06-04T01:21:38;96878.28;;;16.18;27.04
25350;BME280;13302;48.796;11.978;2023-06-04T01:24:27;96893.03;;;16.15;26.96
25350;BME280;13302;48.796;11.978;2023-06-04T01:27:15;96886.25;;;16.13;27.04
25350;BME280;13302;48.796;11.978;2023-06-04T01:30:03;96884.19;;;16.09;27.24
25350;BME280;13302;48.796;11.978;2023-06-04T01:32:52;96886.59;;;16.07;27.07
25350;BME280;13302;48.796;11.978;2023-06-04T01:35:40;96888.16;;;16.05;27.04
25350;BME280;13302;48.796;11.978;2023-06-04T01:38:27;96881.38;;;16.02;27.36
25350;BME280;13302;48.796;11.978;2023-06-04T01:41:14;96882.53;;;15.98;27.26
25350;BME280;13302;48.796;11.978;2023-06-04T01:44:01;96882.50;;;15.94;27.09
25350;BME280;13302;48.796;11.978;2023-06-04T01:46:48;96884.44;;;15.90;26.97
25350;BME280;13302;48.796;11.978;2023-06-04T01:49:36;96883.63;;;15.86;27.08
25350;BME280;13302;48.796;11.978;2023-06-04T01:52:24;96883.59;;;15.83;27.29
25350;BME280;13302;48.796;11.978;2023-06-04T01:55:13;96892.31;;;15.78;27.39
25350;BME280;13302;48.796;11.978;2023-06-04T01:58:01;96891.91;;;15.76;27.09
25350;BME280;13302;48.796;11.978;2023-06-04T02:00:51;96900.22;;;15.72;27.24
25350;BME280;13302;48.796;11.978;2023-06-04T02:03:39;96897.81;;;15.71;27.36
25350;BME280;13302;48.796;11.978;2023-06-04T02:06:27;96901.78;;;15.70;27.55
25350;BME280;13302;48.796;11.978;2023-06-04T02:09:16;96901.72;;;15.66;27.43
25350;BME280;13302;48.796;11.978;2023-06-04T02:12:04;96900.91;;;15.66;27.48
25350;BME280;13302;48.796;11.978;2023-06-04T02:14:51;96902.50;;;15.63;27.38
25350;BME280;13302;48.796;11.978;2023-06-04T02:17:38;96894.50;;;15.61;27.58
25350;BME280;13302;48.796;11.978;2023-06-04T02:20:27;96906.84;;;15.60;27.54
25350;BME280;13302;48.796;11.978;2023-06-04T02:23:15;96905.22;;;15.59;27.39
25350;BME280;13302;48.796;11.978;2023-06-04T02:26:03;96908.78;;;15.56;27.45
25350;BME280;13302;48.796;11.978;2023-06-04T02:28:50;96902.81;;;15.54;27.57
25350;BME280;13302;48.796;11.978;2023-06-04T02:31:37;96903.56;;;15.51;27.48
25350;BME280;13302;48.796;11.978;2023-06-04T02:34:24;96907.50;;;15.47;27.50
25350;BME280;13302;48.796;11.978;2023-06-04T02:37:11;96913.44;;;15.42;27.53
25350;BME280;13302;48.796;11.978;2023-06-04T02:39:58;96907.00;;;15.38;27.98
25350;BME280;13302;48.796;11.978;2023-06-04T02:42:46;96899.78;;;15.33;27.69
25350;BME280;13302;48.796;11.978;2023-06-04T02:45:33;96907.31;;;15.29;27.77
25350;BME280;13302;48.796;11.978;2023-06-04T02:48:20;96911.22;;;15.25;28.11
25350;BME280;13302;48.796;11.978;2023-06-04T02:51:07;96909.22;;;15.22;28.00
25350;BME280;13302;48.796;11.978;2023-06-04T02:53:57;96902.00;;;15.17;28.01
25350;BME280;13302;48.796;11.978;2023-06-04T02:56:44;96909.13;;;15.14;28.24
25350;BME280;13302;48.796;11.978;2023-06-04T02:59:31;96907.09;;;15.11;28.18
25350;BME280;13302;48.796;11.978;2023-06-04T03:02:18;96903.09;;;15.09;28.16
25350;BME280;13302;48.796;11.978;2023-06-04T03:05:08;96905.03;;;15.05;27.98
25350;BME280;13302;48.796;11.978;2023-06-04T03:07:56;96901.41;;;15.01;28.05
25350;BME280;13302;48.796;11.978;2023-06-04T03:10:44;96905.75;;;14.98;28.37
25350;BME280;13302;48.796;11.978;2023-06-04T03:13:32;96913.69;;;14.96;28.23
25350;BME280;13302;48.796;11.978;2023-06-04T03:16:19;96913.25;;;14.94;28.23
25350;BME280;13302;48.796;11.978;2023-06-04T03:19:07;96919.22;;;14.93;28.54
25350;BME280;13302;48.796;11.978;2023-06-04T03:21:55;96923.16;;;14.92;28.51
25350;BME280;13302;48.796;11.978;2023-06-04T03:24:43;96920.31;;;14.88;28.26
25350;BME280;13302;48.796;11.978;2023-06-04T03:27:32;96928.66;;;14.88;28.21
25350;BME280;13302;48.796;11.978;2023-06-04T03:30:19;96928.63;;;14.85;28.43
25350;BME280;13302;48.796;11.978;2023-06-04T03:33:15;96930.16;;;14.82;28.64
25350;BME280;13302;48.796;11.978;2023-06-04T03:36:03;96930.13;;;14.79;28.65
25350;BME280;13302;48.796;11.978;2023-06-04T03:38:50;96934.06;;;14.78;28.71
25350;BME280;13302;48.796;11.978;2023-06-04T03:41:37;96935.63;;;14.75;28.85
25350;BME280;13302;48.796;11.978;2023-06-04T03:44:24;96931.19;;;14.70;28.87
25350;BME280;13302;48.796;11.978;2023-06-04T03:47:12;96947.41;;;14.65;28.65
25350;BME280;13302;48.796;11.978;2023-06-04T03:50:00;96946.19;;;14.62;28.90
25350;BME280;13302;48.796;11.978;2023-06-04T03:52:48;96940.22;;;14.60;28.86
25350;BME280;13302;48.796;11.978;2023-06-04T03:55:37;96940.56;;;14.59;29.08
25350;BME280;13302;48.796;11.978;2023-06-04T03:58:26;96941.75;;;14.58;29.06
25350;BME280;13302;48.796;11.978;2023-06-04T04:01:15;96944.16;;;14.59;29.14
25350;BME280;13302;48.796;11.978;2023-06-04T04:04:04;96937.03;;;14.62;29.05
25350;BME280;13302;48.796;11.978;2023-06-04T04:06:52;96935.50;;;14.64;29.14
25350;BME280;13302;48.796;11.978;2023-06-04T04:09:39;96925.94;;;14.65;29.07
25350;BME280;13302;48.796;11.978;2023-06-04T04:12:27;96947.84;;;14.67;29.27
25350;BME280;13302;48.796;11.978;2023-06-04T04:15:14;96941.09;;;14.68;29.36
25350;BME280;13302;48.796;11.978;2023-06-04T04:18:02;96950.25;;;14.68;29.44
25350;BME280;13302;48.796;11.978;2023-06-04T04:20:50;96952.28;;;14.71;29.31
25350;BME280;13302;48.796;11.978;2023-06-04T04:23:38;96957.50;;;14.73;29.48
25350;BME280;13302;48.796;11.978;2023-06-04T04:26:29;96949.91;;;14.73;29.77
25350;BME280;13302;48.796;11.978;2023-06-04T04:29:18;96951.16;;;14.76;29.71
25350;BME280;13302;48.796;11.978;2023-06-04T04:32:06;96953.53;;;14.78;30.03
25350;BME280;13302;48.796;11.978;2023-06-04T04:34:59;96955.97;;;14.79;29.78
25350;BME280;13302;48.796;11.978;2023-06-04T04:37:53;96949.22;;;14.80;30.18
25350;BME280;13302;48.796;11.978;2023-06-04T04:40:41;96959.19;;;14.81;30.55
25350;BME280;13302;48.796;11.978;2023-06-04T04:43:31;96949.59;;;14.79;30.32
25350;BME280;13302;48.796;11.978;2023-06-04T04:46:24;96944.84;;;14.79;30.56
25350;BME280;13302;48.796;11.978;2023-06-04T04:49:12;96951.22;;;14.80;30.96
25350;BME280;13302;48.796;11.978;2023-06-04T04:51:59;96957.94;;;14.79;31.33
25350;BME280;13302;48.796;11.978;2023-06-04T04:54:46;96961.47;;;14.76;31.41
25350;BME280;13302;48.796;11.978;2023-06-04T04:57:33;96966.25;;;14.75;31.32
25350;BME280;13302;48.796;11.978;2023-06-04T05:00:20;96965.03;;;14.73;31.28
25350;BME280;13302;48.796;11.978;2023-06-04T05:03:11;96971.81;;;14.75;31.12
25350;BME280;13302;48.796;11.978;2023-06-04T05:05:59;96966.69;;;14.77;30.81
25350;BME280;13302;48.796;11.978;2023-06-04T05:08:47;96975.44;;;14.79;31.02
25350;BME280;13302;48.796;11.978;2023-06-04T05:11:36;96976.66;;;14.82;31.12
25350;BME280;13302;48.796;11.978;2023-06-04T05:14:24;96981.50;;;14.85;31.50
25350;BME280;13302;48.796;11.978;2023-06-04T05:17:11;96975.97;;;14.88;31.39
25350;BME280;13302;48.796;11.978;2023-06-04T05:20:00;96985.22;;;14.92;31.75
25350;BME280;13302;48.796;11.978;2023-06-04T05:22:55;96985.25;;;14.96;31.49
25350;BME280;13302;48.796;11.978;2023-06-04T05:25:42;96988.09;;;14.99;31.41
25350;BME280;13302;48.796;11.978;2023-06-04T05:28:33;96995.25;;;15.00;31.37
25350;BME280;13302;48.796;11.978;2023-06-04T05:31:21;96983.38;;;15.03;31.44
25350;BME280;13302;48.796;11.978;2023-06-04T05:34:09;96990.59;;;15.08;31.77
25350;BME280;13302;48.796;11.978;2023-06-04T05:36:59;97000.16;;;15.10;31.35
25350;BME280;13302;48.796;11.978;2023-06-04T05:39:47;96996.63;;;15.13;31.44
25350;BME280;13302;48.796;11.978;2023-06-04T05:42:35;96995.06;;;15.16;31.47
25350;BME280;13302;48.796;11.978;2023-06-04T05:45:22;96994.31;;;15.19;31.82
25350;BME280;13302;48.796;11.978;2023-06-04T05:48:10;97000.31;;;15.21;31.47
25350;BME280;13302;48.796;11.978;2023-06-04T05:50:57;97004.31;;;15.24;31.52
25350;BME280;13302;48.796;11.978;2023-06-04T05:53:44;97006.78;;;15.29;31.81
25350;BME280;13302;48.796;11.978;2023-06-04T05:56:32;97002.41;;;15.31;31.46
25350;BME280;13302;48.796;11.978;2023-06-04T05:59:20;97006.06;;;15.35;31.49
25350;BME280;13302;48.796;11.978;2023-06-04T06:02:07;97006.53;;;15.41;31.57
25350;BME280;13302;48.796;11.978;2023-06-04T06:04:54;97009.34;;;15.44;31.55
25350;BME280;13302;48.796;11.978;2023-06-04T06:07:41;97010.19;;;15.48;31.37
25350;BME280;13302;48.796;11.978;2023-06-04T06:10:29;97011.84;;;15.53;31.69
25350;BME280;13302;48.796;11.978;2023-06-04T06:13:16;97017.91;;;15.58;31.26
25350;BME280;13302;48.796;11.978;2023-06-04T06:16:04;97020.75;;;15.66;31.42
25350;BME280;13302;48.796;11.978;2023-06-04T06:18:51;97024.44;;;15.73;31.08
25350;BME280;13302;48.796;11.978;2023-06-04T06:21:39;97024.53;;;15.80;31.37
25350;BME280;13302;48.796;11.978;2023-06-04T06:24:26;97029.00;;;15.88;31.33
25350;BME280;13302;48.796;11.978;2023-06-04T06:27:14;97027.09;;;15.96;30.99
25350;BME280;13302;48.796;11.978;2023-06-04T06:30:03;97032.31;;;16.01;31.25
25350;BME280;13302;48.796;11.978;2023-06-04T06:32:50;97032.41;;;16.08;30.73
25350;BME280;13302;48.796;11.978;2023-06-04T06:35:41;97039.63;;;16.13;31.06
25350;BME280;13302;48.796;11.978;2023-06-04T06:38:28;97024.50;;;16.17;31.17
25350;BME280;13302;48.796;11.978;2023-06-04T06:41:16;97030.53;;;16.23;31.13
25350;BME280;13302;48.796;11.978;2023-06-04T06:44:04;97039.75;;;16.27;30.97
25350;BME280;13302;48.796;11.978;2023-06-04T06:46:51;97041.75;;;16.30;31.02
25350;BME280;13302;48.796;11.978;2023-06-04T06:49:39;97036.66;;;16.35;30.99
25350;BME280;13302;48.796;11.978;2023-06-04T06:52:26;97036.66;;;16.39;31.10
25350;BME280;13302;48.796;11.978;2023-06-04T06:55:13;97043.56;;;16.45;31.20
25350;BME280;13302;48.796;11.978;2023-06-04T06:58:00;97042.41;;;16.49;30.62
25350;BME280;13302;48.796;11.978;2023-06-04T07:00:47;97044.84;;;16.58;30.80
25350;BME280;13302;48.796;11.978;2023-06-04T07:03:35;97043.31;;;16.64;30.55
25350;BME280;13302;48.796;11.978;2023-06-04T07:06:22;97044.56;;;16.70;30.11
25350;BME280;13302;48.796;11.978;2023-06-04T07:09:09;97043.81;;;16.77;30.18
25350;BME280;13302;48.796;11.978;2023-06-04T07:11:56;97045.03;;;16.83;29.77
25350;BME280;13302;48.796;11.978;2023-06-04T07:14:43;97043.50;;;16.89;29.48
25350;BME280;13302;48.796;11.978;2023-06-04T07:17:30;97042.72;;;16.95;29.41
25350;BME280;13302;48.796;11.978;2023-06-04T07:20:17;97045.59;;;17.03;29.45
25350;BME280;13302;48.796;11.978;2023-06-04T07:23:04;97048.41;;;17.10;29.32
25350;BME280;13302;48.796;11.978;2023-06-04T07:25:53;97042.50;;;17.15;29.50
25350;BME280;13302;48.796;11.978;2023-06-04T07:28:40;97054.09;;;17.20;29.10
25350;BME280;13302;48.796;11.978;2023-06-04T07:31:27;97043.34;;;17.22;29.22
25350;BME280;13302;48.796;11.978;2023-06-04T07:34:14;97044.97;;;17.27;29.23
25350;BME280;13302;48.796;11.978;2023-06-04T07:37:01;97040.56;;;17.29;29.29
25350;BME280;13302;48.796;11.978;2023-06-04T07:39:49;97050.59;;;17.34;29.53
25350;BME280;13302;48.796;11.978;2023-06-04T07:42:36;97051.81;;;17.40;29.48
25350;BME280;13302;48.796;11.978;2023-06-04T07:45:23;97048.25;;;17.43;29.30
25350;BME280;13302;48.796;11.978;2023-06-04T07:48:10;97042.66;;;17.47;29.23
25350;BME280;13302;48.796;11.978;2023-06-04T07:51:01;97030.69;;;17.50;29.35
25350;BME280;13302;48.796;11.978;2023-06-04T07:53:48;97025.53;;;17.52;29.18
25350;BME280;13302;48.796;11.978;2023-06-04T07:56:35;97033.13;;;17.55;29.11
25350;BME280;13302;48.796;11.978;2023-06-04T07:59:23;97030.34;;;17.58;29.38
25350;BME280;13302;48.796;11.978;2023-06-04T08:02:10;97031.16;;;17.62;29.13
25350;BME280;13302;48.796;11.978;2023-06-04T08:04:57;97027.16;;;17.67;29.43
25350;BME280;13302;48.796;11.978;2023-06-04T08:07:46;97025.19;;;17.71;29.35
25350;BME280;13302;48.796;11.978;2023-06-04T08:10:34;97024.00;;;17.75;29.00
25350;BME280;13302;48.796;11.978;2023-06-04T08:13:21;97029.59;;;17.79;29.19
25350;BME280;13302;48.796;11.978;2023-06-04T08:16:09;97030.41;;;17.83;29.09
25350;BME280;13302;48.796;11.978;2023-06-04T08:19:17;97037.28;;;17.89;29.06
25350;BME280;13302;48.796;11.978;2023-06-04T08:22:05;97032.50;;;17.93;28.86
25350;BME280;13302;48.796;11.978;2023-06-04T08:25:02;97041.69;;;17.97;28.77
25350;BME280;13302;48.796;11.978;2023-06-04T08:28:13;97037.28;;;18.03;28.63
25350;BME280;13302;48.796;11.978;2023-06-04T08:31:15;97040.91;;;18.07;28.65
25350;BME280;13302;48.796;11.978;2023-06-04T08:34:23;97037.72;;;18.12;28.92
25350;BME280;13302;48.796;11.978;2023-06-04T08:37:10;97044.13;;;18.16;28.39
25350;BME280;13302;48.796;11.978;2023-06-04T08:39:57;97042.13;;;18.20;28.62
25350;BME280;13302;48.796;11.978;2023-06-04T08:42:44;97037.34;;;18.24;28.41
25350;BME280;13302;48.796;11.978;2023-06-04T08:45:38;97036.16;;;18.25;28.40
25350;BME280;13302;48.796;11.978;2023-06-04T08:48:26;97042.13;;;18.31;28.25
25350;BME280;13302;48.796;11.978;2023-06-04T08:51:15;97044.16;;;18.34;28.10
25350;BME280;13302;48.796;11.978;2023-06-04T08:54:06;97043.34;;;18.37;28.35
25350;BME280;13302;48.796;11.978;2023-06-04T08:56:56;97044.56;;;18.40;28.14
25350;BME280;13302;48.796;11.978;2023-06-04T08:59:43;97054.56;;;18.44;28.16
25350;BME280;13302;48.796;11.978;2023-06-04T09:02:36;97034.16;;;18.47;28.14
25350;BME280;13302;48.796;11.978;2023-06-04T09:05:26;97036.56;;;18.52;28.19
25350;BME280;13302;48.796;11.978;2023-06-04T09:08:14;97047.78;;;18.56;28.04
25350;BME280;13302;48.796;11.978;2023-06-04T09:11:05;97041.41;;;18.59;27.93
25350;BME280;13302;48.796;11.978;2023-06-04T09:13:53;97045.03;;;18.63;27.71
25350;BME280;13302;48.796;11.978;2023-06-04T09:16:49;97043.78;;;18.64;27.71
25350;BME280;13302;48.796;11.978;2023-06-04T09:19:36;97042.22;;;18.66;27.59
25350;BME280;13302;48.796;11.978;2023-06-04T09:22:33;97036.19;;;18.68;27.42
25350;BME280;13302;48.796;11.978;2023-06-04T09:25:25;97039.41;;;18.70;27.37
25350;BME280;13302;48.796;11.978;2023-06-04T09:28:12;97039.00;;;18.75;27.37
25350;BME280;13302;48.796;11.978;2023-06-04T09:30:59;97037.00;;;18.79;27.44
25350;BME280;13302;48.796;11.978;2023-06-04T09:33:48;97033.41;;;18.82;27.30
25350;BME280;13302;48.796;11.978;2023-06-04T09:36:36;97037.78;;;18.87;26.96
25350;BME280;13302;48.796;11.978;2023-06-04T09:39:24;97036.19;;;18.89;27.22
25350;BME280;13302;48.796;11.978;2023-06-04T09:42:11;97043.00;;;18.92;26.85
25350;BME280;13302;48.796;11.978;2023-06-04T09:44:58;97033.78;;;18.95;26.83
25350;BME280;13302;48.796;11.978;2023-06-04T09:47:48;97029.78;;;18.96;26.56
25350;BME280;13302;48.796;11.978;2023-06-04T09:50:35;97034.56;;;18.99;26.33
25350;BME280;13302;48.796;11.978;2023-06-04T09:53:26;97030.16;;;19.01;26.27
25350;BME280;13302;48.796;11.978;2023-06-04T09:56:18;97024.97;;;19.03;26.12
25350;BME280;13302;48.796;11.978;2023-06-04T09:59:05;97020.56;;;19.06;26.11
25350;BME280;13302;48.796;11.978;2023-06-04T10:01:52;97029.75;;;19.10;26.04
25350;BME280;13302;48.796;11.978;2023-06-04T10:04:41;97028.94;;;19.13;26.09
25350;BME280;13302;48.796;11.978;2023-06-04T10:07:35;97031.34;;;19.14;26.00
25350;BME280;13302;48.796;11.978;2023-06-04T10:10:26;97029.34;;;19.18;25.99
25350;BME280;13302;48.796;11.978;2023-06-04T10:13:18;97034.16;;;19.21;25.64
25350;BME280;13302;48.796;11.978;2023-06-04T10:16:06;97022.97;;;19.25;25.50
25350;BME280;13302;48.796;11.978;2023-06-04T10:18:59;97022.13;;;19.28;25.58
25350;BME280;13302;48.796;11.978;2023-06-04T10:21:47;97026.94;;;19.31;25.61
25350;BME280;13302;48.796;11.978;2023-06-04T10:24:35;97028.91;;;19.34;25.91
25350;BME280;13302;48.796;11.978;2023-06-04T10:27:22;97024.53;;;19.37;25.69
25350;BME280;13302;48.796;11.978;2023-06-04T10:30:10;97025.69;;;19.39;25.67
25350;BME280;13302;48.796;11.978;2023-06-04T10:32:58;97032.09;;;19.43;25.45
25350;BME280;13302;48.796;11.978;2023-06-04T10:35:46;97032.09;;;19.47;25.30
25350;BME280;13302;48.796;11.978;2023-06-04T10:38:33;97030.50;;;19.49;25.36
25350;BME280;13302;48.796;11.978;2023-06-04T10:41:31;97033.28;;;19.53;25.43
25350;BME280;13302;48.796;11.978;2023-06-04T10:44:19;97022.84;;;19.57;25.27
25350;BME280;13302;48.796;11.978;2023-06-04T10:50:12;97014.78;;;19.62;25.55
25350;BME280;13302;48.796;11.978;2023-06-04T10:53:00;97018.81;;;19.65;25.40
25350;BME280;13302;48.796;11.978;2023-06-04T10:55:50;97017.59;;;19.69;25.56
25350;BME280;13302;48.796;11.978;2023-06-04T10:58:37;97009.16;;;19.73;25.23
25350;BME280;13302;48.796;11.978;2023-06-04T11:01:28;97010.75;;;19.74;25.52
25350;BME280;13302;48.796;11.978;2023-06-04T11:04:23;97011.53;;;19.78;25.25
25350;BME280;13302;48.796;11.978;2023-06-04T11:07:10;97010.28;;;19.83;25.49
25350;BME280;13302;48.796;11.978;2023-06-04T11:09:58;97015.13;;;19.86;25.51
25350;BME280;13302;48.796;11.978;2023-06-04T11:12:49;97017.09;;;19.89;25.24
25350;BME280;13302;48.796;11.978;2023-06-04T11:15:41;97014.72;;;19.91;25.08
25350;BME280;13302;48.796;11.978;2023-06-04T11:18:28;97013.06;;;19.93;25.08
25350;BME280;13302;48.796;11.978;2023-06-04T11:21:15;97007.06;;;19.95;24.80
25350;BME280;13302;48.796;11.978;2023-06-04T11:24:03;97011.84;;;19.98;25.16
25350;BME280;13302;48.796;11.978;2023-06-04T11:26:51;96998.19;;;20.00;24.87
25350;BME280;13302;48.796;11.978;2023-06-04T11:29:58;97005.00;;;20.02;25.07
25350;BME280;13302;48.796;11.978;2023-06-04T11:32:46;97007.00;;;20.05;24.88
25350;BME280;13302;48.796;11.978;2023-06-04T11:35:41;96999.75;;;20.08;25.09
25350;BME280;13302;48.796;11.978;2023-06-04T11:38:28;97002.53;;;20.11;25.28
25350;BME280;13302;48.796;11.978;2023-06-04T11:41:16;97007.34;;;20.14;24.92
25350;BME280;13302;48.796;11.978;2023-06-04T11:44:04;97012.53;;;20.20;24.83
25350;BME280;13302;48.796;11.978;2023-06-04T11:46:55;97004.09;;;20.23;24.96
25350;BME280;13302;48.796;11.978;2023-06-04T11:49:43;96994.03;;;20.26;25.20
25350;BME280;13302;48.796;11.978;2023-06-04T11:52:31;96992.38;;;20.28;25.34
25350;BME280;13302;48.796;11.978;2023-06-04T11:55:19;96992.78;;;20.30;24.97
25350;BME280;13302;48.796;11.978;2023-06-04T11:58:09;96995.56;;;20.34;25.09
25350;BME280;13302;48.796;11.978;2023-06-04T12:00:56;96993.94;;;20.36;25.01
25350;BME280;13302;48.796;11.978;2023-06-04T12:03:44;96989.53;;;20.39;25.23
25350;BME280;13302;48.796;11.978;2023-06-04T12:06:31;96989.09;;;20.40;25.11
25350;BME280;13302;48.796;11.978;2023-06-04T12:09:21;96977.06;;;20.43;24.74
25350;BME280;13302;48.796;11.978;2023-06-04T12:12:08;96980.22;;;20.45;24.68
25350;BME280;13302;48.796;11.978;2023-06-04T12:14:59;96973.03;;;20.48;24.86
25350;BME280;13302;48.796;11.978;2023-06-04T12:17:53;96967.41;;;20.48;25.05
25350;BME280;13302;48.796;11.978;2023-06-04T12:20:41;96978.63;;;20.51;24.97
25350;BME280;13302;48.796;11.978;2023-06-04T12:23:28;96971.81;;;20.52;25.03
25350;BME280;13302;48.796;11.978;2023-06-04T12:26:25;96966.19;;;20.52;25.09
25350;BME280;13302;48.796;11.978;2023-06-04T12:29:17;96971.38;;;20.54;25.04
25350;BME280;13302;48.796;11.978;2023-06-04T12:32:07;96966.50;;;20.58;25.02
25350;BME280;13302;48.796;11.978;2023-06-04T12:35:00;96964.09;;;20.60;24.83
25350;BME280;13302;48.796;11.978;2023-06-04T12:37:47;96969.69;;;20.63;24.88
25350;BME280;13302;48.796;11.978;2023-06-04T12:40:34;96960.81;;;20.65;24.67
25350;BME280;13302;48.796;11.978;2023-06-04T12:43:21;96960.41;;;20.67;24.76
25350;BME280;13302;48.796;11.978;2023-06-04T12:46:08;96953.59;;;20.68;24.65
25350;BME280;13302;48.796;11.978;2023-06-04T12:48:55;96961.19;;;20.71;24.64
25350;BME280;13302;48.796;11.978;2023-06-04T12:51:42;96957.53;;;20.74;24.42
25350;BME280;13302;48.796;11.978;2023-06-04T12:54:30;96948.69;;;20.75;24.50
25350;BME280;13302;48.796;11.978;2023-06-04T12:57:17;96951.09;;;20.77;24.62
25350;BME280;13302;48.796;11.978;2023-06-04T13:00:05;96950.25;;;20.80;24.63
25350;BME280;13302;48.796;11.978;2023-06-04T13:02:52;96945.81;;;20.82;24.58
25350;BME280;13302;48.796;11.978;2023-06-04T13:05:39;96953.44;;;20.85;24.40
25350;BME280;13302;48.796;11.978;2023-06-04T13:08:26;96950.97;;;20.87;24.56
25350;BME280;13302;48.796;11.978;2023-06-04T13:11:13;96946.53;;;20.90;24.42
25350;BME280;13302;48.796;11.978;2023-06-04T13:14:00;96946.94;;;20.92;24.38
25350;BME280;13302;48.796;11.978;2023-06-04T13:16:47;96936.84;;;20.94;24.25
25350;BME280;13302;48.796;11.978;2023-06-04T13:19:36;96938.44;;;20.95;24.32
25350;BME280;13302;48.796;11.978;2023-06-04T13:22:23;96938.41;;;20.99;24.45
25350;BME280;13302;48.796;11.978;2023-06-04T13:25:10;96937.19;;;21.00;24.24
25350;BME280;13302;48.796;11.978;2023-06-04T13:27:57;96937.56;;;21.02;24.16
25350;BME280;13302;48.796;11.978;2023-06-04T13:30:44;96941.19;;;21.02;23.61
25350;BME280;13302;48.796;11.978;2023-06-04T13:33:31;96940.78;;;21.04;23.82
25350;BME280;13302;48.796;11.978;2023-06-04T13:36:21;96938.75;;;21.04;23.47
25350;BME280;13302;48.796;11.978;2023-06-04T13:39:08;96935.94;;;21.04;23.75
25350;BME280;13302;48.796;11.978;2023-06-04T13:41:55;96933.50;;;21.06;23.64
25350;BME280;13302;48.796;11.978;2023-06-04T13:44:42;96941.94;;;21.06;23.12
25350;BME280;13302;48.796;11.978;2023-06-04T13:47:29;96927.88;;;21.06;23.24
25350;BME280;13302;48.796;11.978;2023-06-04T13:50:16;96923.06;;;21.07;23.53
25350;BME280;13302;48.796;11.978;2023-06-04T13:53:03;96928.28;;;21.08;23.38
25350;BME280;13302;48.796;11.978;2023-06-04T13:55:50;96932.72;;;21.10;23.45
25350;BME280;13302;48.796;11.978;2023-06-04T13:58:44;96927.47;;;21.12;23.40
25350;BME280;13302;48.796;11.978;2023-06-04T14:01:31;96927.84;;;21.14;23.36
25350;BME280;13302;48.796;11.978;2023-06-04T14:04:18;96935.84;;;21.15;23.45
25350;BME280;13302;48.796;11.978;2023-06-04T14:07:05;96938.25;;;21.17;23.68
25350;BME280;13302;48.796;11.978;2023-06-04T14:09:53;96937.41;;;21.20;23.40
25350;BME280;13302;48.796;11.978;2023-06-04T14:12:41;96932.16;;;21.22;23.21
25350;BME280;13302;48.796;11.978;2023-06-04T14:15:29;96927.72;;;21.24;23.14
25350;BME280;13302;48.796;11.978;2023-06-04T14:18:16;96918.88;;;21.26;23.27
25350;BME280;13302;48.796;11.978;2023-06-04T14:21:03;96925.66;;;21.28;23.31
25350;BME280;13302;48.796;11.978;2023-06-04T14:23:50;96924.00;;;21.31;23.23
25350;BME280;13302;48.796;11.978;2023-06-04T14:26:37;96930.44;;;21.31;23.14
25350;BME280;13302;48.796;11.978;2023-06-04T14:29:25;96924.38;;;21.33;23.11
25350;BME280;13302;48.796;11.978;2023-06-04T14:32:12;96921.16;;;21.34;23.31
25350;BME280;13302;48.796;11.978;2023-06-04T14:34:59;96915.91;;;21.36;23.00
25350;BME280;13302;48.796;11.978;2023-06-04T14:37:46;96910.66;;;21.38;23.29
25350;BME280;13302;48.796;11.978;2023-06-04T14:40:33;96907.41;;;21.40;23.12
25350;BME280;13302;48.796;11.978;2023-06-04T14:43:23;96909.81;;;21.41;23.22
25350;BME280;13302;48.796;11.978;2023-06-04T14:46:10;96921.44;;;21.43;23.38